Time;durP1;ratioP1;P1;durP2;ratioP2;P2;SDS_P1;SDS_P2;PMS_P1;PMS_P2;Temp;Humidity;BMP_temperature;BMP_pressure;BME280_temperature;BME280_humidity;BME280_pressure;Samples;Min_cycle;Max_cycle;Signal;HPM_P1;HPM_P2
2021/01/01 00:01:38;;;;;;;53.25;39.78;;;16.50;55.90;;;;;;5033380;28;20059;-56
2021/01/01 00:04:05;;;;;;;56.47;40.92;;;16.50;55.90;;;;;;5033078;28;20044;-56
2021/01/01 00:06:30;;;;;;;54.78;40.38;;;16.50;56.00;;;;;;5033018;28;20100;-57
2021/01/01 00:08:56;;;;;;;54.53;40.33;;;16.50;56.20;;;;;;5015325;28;20124;-56
2021/01/01 00:11:22;;;;;;;59.65;39.25;;;16.70;56.40;;;;;;5033251;28;20057;-56
2021/01/01 00:13:48;;;;;;;56.03;39.38;;;16.60;56.20;;;;;;5015321;28;20021;-57
2021/01/01 00:16:14;;;;;;;52.53;38.80;;;16.60;56.40;;;;;;5035271;28;20124;-57
2021/01/01 00:18:41;;;;;;;55.17;40.08;;;16.60;57.10;;;;;;5015475;28;20049;-57
2021/01/01 00:21:07;;;;;;;57.22;39.60;;;16.70;56.50;;;;;;5032912;28;20026;-55
2021/01/01 00:23:33;;;;;;;49.88;38.92;;;16.70;56.50;;;;;;5032860;28;20040;-56
2021/01/01 00:25:59;;;;;;;54.88;38.30;;;16.70;56.60;;;;;;5032851;28;20597;-55
2021/01/01 00:28:25;;;;;;;52.72;38.78;;;16.70;56.60;;;;;;5032822;28;20029;-56
2021/01/01 00:30:51;;;;;;;50.78;39.30;;;16.80;56.60;;;;;;5032817;28;20060;-56
2021/01/01 00:33:16;;;;;;;55.85;40.15;;;16.70;56.50;;;;;;5032521;28;20113;-56
2021/01/01 00:35:42;;;;;;;58.00;40.58;;;16.70;56.60;;;;;;5032581;28;20061;-57
2021/01/01 00:38:08;;;;;;;53.42;40.35;;;16.80;56.70;;;;;;5032137;28;20036;-57
2021/01/01 00:40:33;;;;;;;55.33;39.83;;;16.80;56.70;;;;;;5014805;28;20022;-57
2021/01/01 00:42:59;;;;;;;56.10;41.08;;;16.80;56.70;;;;;;5032545;28;20368;-56
2021/01/01 00:45:25;;;;;;;55.60;40.15;;;16.80;56.70;;;;;;5032555;28;20045;-57
2021/01/01 00:47:50;;;;;;;51.22;40.28;;;16.80;56.80;;;;;;5014828;28;20028;-55
2021/01/01 00:50:16;;;;;;;56.58;40.45;;;16.80;56.70;;;;;;5014577;28;20037;-56
2021/01/01 00:52:42;;;;;;;55.88;42.58;;;16.90;56.80;;;;;;5032240;28;20048;-57
2021/01/01 00:55:08;;;;;;;55.97;41.65;;;16.80;56.70;;;;;;5014547;28;20040;-57
2021/01/01 00:57:34;;;;;;;54.63;41.42;;;16.80;56.80;;;;;;5032203;28;20025;-56
2021/01/01 01:00:00;;;;;;;56.85;42.95;;;16.80;56.80;;;;;;5014457;28;20098;-57
2021/01/01 01:02:26;;;;;;;55.30;41.15;;;17.00;56.80;;;;;;5014529;28;20014;-55
2021/01/01 01:04:52;;;;;;;56.53;40.10;;;16.80;56.70;;;;;;5032155;28;20084;-57
2021/01/01 01:07:18;;;;;;;56.15;40.67;;;16.90;56.70;;;;;;5014279;28;20025;-56
2021/01/01 01:09:44;;;;;;;59.30;41.47;;;16.80;56.70;;;;;;5014430;28;20086;-56
2021/01/01 01:12:18;;;;;;;57.90;41.78;;;16.90;56.60;;;;;;5032144;28;20480;-57
2021/01/01 01:14:43;;;;;;;57.17;42.45;;;16.90;56.70;;;;;;5033945;28;20045;-56
2021/01/01 01:17:09;;;;;;;57.97;41.25;;;16.80;56.80;;;;;;5014397;28;20068;-57
2021/01/01 01:19:35;;;;;;;59.50;42.47;;;16.90;56.80;;;;;;5014352;28;20061;-56
2021/01/01 01:22:00;;;;;;;56.35;42.53;;;16.90;57.40;;;;;;5014296;28;20021;-57
2021/01/01 01:24:26;;;;;;;54.30;41.85;;;16.80;56.70;;;;;;5014327;28;20033;-57
2021/01/01 01:26:51;;;;;;;53.85;40.60;;;16.80;56.80;;;;;;5014285;28;20026;-56
2021/01/01 01:29:17;;;;;;;56.05;40.63;;;17.30;57.10;;;;;;5032129;28;20026;-56
2021/01/01 01:31:42;;;;;;;54.33;42.05;;;16.80;56.80;;;;;;5014224;28;20404;-57
2021/01/01 01:34:08;;;;;;;53.78;40.38;;;16.80;56.80;;;;;;5013809;28;20033;-57
2021/01/01 01:36:34;;;;;;;53.78;40.63;;;16.80;56.90;;;;;;5031745;28;20017;-56
2021/01/01 01:38:59;;;;;;;62.28;43.72;;;16.80;57.00;;;;;;5014126;28;20361;-57
2021/01/01 01:41:25;;;;;;;55.15;41.60;;;16.70;57.00;;;;;;5014239;28;20032;-55
2021/01/01 01:43:50;;;;;;;60.65;42.85;;;16.70;57.10;;;;;;5014135;28;20041;-56
2021/01/01 01:46:16;;;;;;;57.90;42.85;;;16.70;57.10;;;;;;5013985;28;20018;-57
2021/01/01 01:48:43;;;;;;;57.35;41.75;;;16.70;57.20;;;;;;5031827;28;20029;-56
2021/01/01 01:51:10;;;;;;;58.88;44.38;;;16.70;57.20;;;;;;5033945;28;20026;-58
2021/01/01 01:53:43;;;;;;;57.78;42.05;;;16.50;57.10;;;;;;5017700;28;20364;-55
2021/01/01 01:56:10;;;;;;;56.45;42.45;;;16.60;57.20;;;;;;5035777;28;20022;-56
2021/01/01 01:58:37;;;;;;;58.95;44.53;;;16.60;57.30;;;;;;5017961;28;20029;-56
2021/01/01 02:01:03;;;;;;;54.63;42.38;;;16.60;57.40;;;;;;5017905;28;20434;-56
2021/01/01 02:03:30;;;;;;;52.97;41.15;;;16.50;57.50;;;;;;5017829;28;20060;-56
2021/01/01 02:05:57;;;;;;;56.60;41.83;;;16.50;57.60;;;;;;5017828;28;20472;-55
2021/01/01 02:08:23;;;;;;;59.13;42.25;;;16.40;57.60;;;;;;5017710;28;20021;-56
2021/01/01 02:10:51;;;;;;;54.35;41.42;;;16.40;57.70;;;;;;5017614;28;20033;-56
2021/01/01 02:13:17;;;;;;;55.38;40.10;;;16.40;57.60;;;;;;5035393;28;20447;-56
2021/01/01 02:15:43;;;;;;;55.05;40.63;;;16.30;57.50;;;;;;5037109;28;20060;-56
2021/01/01 02:18:09;;;;;;;54.67;40.20;;;16.30;57.50;;;;;;5017398;28;20476;-55
2021/01/01 02:20:36;;;;;;;51.58;39.75;;;16.30;57.50;;;;;;5017606;28;20132;-56
2021/01/01 02:23:02;;;;;;;53.63;39.22;;;16.30;57.50;;;;;;5017385;28;20036;-56
2021/01/01 02:25:29;;;;;;;50.72;37.05;;;16.30;57.50;;;;;;5017556;28;20156;-56
2021/01/01 02:27:55;;;;;;;47.17;36.40;;;16.40;57.50;;;;;;5017150;28;20021;-56
2021/01/01 02:30:21;;;;;;;46.47;35.28;;;16.40;57.40;;;;;;5035066;28;20395;-56
2021/01/01 02:32:46;;;;;;;44.95;34.00;;;16.50;57.20;;;;;;5017386;28;20029;-56
2021/01/01 02:35:12;;;;;;;48.13;36.63;;;16.50;57.30;;;;;;5034904;28;20026;-56
2021/01/01 02:37:38;;;;;;;46.53;35.58;;;16.50;57.30;;;;;;5034840;28;20021;-57
2021/01/01 02:40:06;;;;;;;48.30;38.33;;;16.50;57.20;;;;;;5017150;28;20033;-54
2021/01/01 02:42:31;;;;;;;46.15;35.92;;;16.60;57.20;;;;;;5034702;28;20038;-57
2021/01/01 02:44:57;;;;;;;43.30;33.80;;;16.60;57.30;;;;;;5016976;28;20041;-56
2021/01/01 02:47:22;;;;;;;44.20;33.45;;;16.60;57.30;;;;;;5017064;28;20053;-56
2021/01/01 02:49:48;;;;;;;42.13;33.42;;;16.60;57.30;;;;;;5016990;28;20029;-55
2021/01/01 02:52:21;;;;;;;47.50;35.55;;;16.60;57.30;;;;;;5016808;28;20372;-55
2021/01/01 02:54:47;;;;;;;43.67;32.90;;;16.60;57.30;;;;;;5034779;28;20029;-56
2021/01/01 02:57:13;;;;;;;44.58;32.80;;;16.60;57.40;;;;;;5016890;28;20018;-56
2021/01/01 02:59:38;;;;;;;43.92;32.58;;;16.60;57.30;;;;;;5034675;28;20033;-57
2021/01/01 03:02:04;;;;;;;43.38;32.10;;;16.70;57.30;;;;;;5034028;28;20056;-57
2021/01/01 03:04:29;;;;;;;40.63;31.85;;;16.60;57.20;;;;;;5034533;28;20041;-56
2021/01/01 03:06:55;;;;;;;41.00;30.83;;;16.60;57.30;;;;;;5016822;28;20024;-55
2021/01/01 03:09:20;;;;;;;43.10;31.75;;;16.70;57.40;;;;;;5016731;28;20428;-56
2021/01/01 03:11:46;;;;;;;41.58;30.95;;;16.70;57.30;;;;;;5034210;28;20472;-55
2021/01/01 03:14:12;;;;;;;38.08;29.45;;;16.70;57.30;;;;;;5034294;28;20021;-56
2021/01/01 03:16:37;;;;;;;38.58;29.23;;;16.70;57.30;;;;;;5018434;28;20049;-56
2021/01/01 03:19:03;;;;;;;38.30;28.90;;;16.70;57.30;;;;;;5016379;28;20029;-56
2021/01/01 03:21:28;;;;;;;38.90;30.15;;;16.70;57.20;;;;;;5034171;28;20026;-56
2021/01/01 03:23:54;;;;;;;37.83;29.52;;;16.70;57.20;;;;;;5016201;28;20492;-56
2021/01/01 03:26:19;;;;;;;38.53;28.15;;;16.70;57.20;;;;;;5016381;28;20013;-56
2021/01/01 03:28:45;;;;;;;39.00;27.92;;;16.80;57.30;;;;;;5016335;28;20068;-56
2021/01/01 03:31:11;;;;;;;36.45;29.05;;;16.70;57.10;;;;;;5034055;28;20037;-56
2021/01/01 03:33:36;;;;;;;37.88;28.90;;;16.70;57.20;;;;;;5015978;28;20079;-55
2021/01/01 03:36:03;;;;;;;33.50;25.88;;;16.80;57.20;;;;;;5033974;28;20029;-56
2021/01/01 03:38:32;;;;;;;32.78;26.65;;;16.80;57.10;;;;;;5015975;28;20120;-56
2021/01/01 03:40:58;;;;;;;33.25;26.67;;;16.80;57.10;;;;;;5034080;28;20032;-52
2021/01/01 03:43:24;;;;;;;33.42;25.33;;;16.70;57.00;;;;;;5016018;28;20053;-56
2021/01/01 03:45:49;;;;;;;32.47;25.58;;;16.70;57.00;;;;;;5033774;28;20080;-56
2021/01/01 03:48:18;;;;;;;32.45;25.00;;;16.70;57.10;;;;;;5015855;28;20044;-56
2021/01/01 03:50:45;;;;;;;33.20;25.55;;;16.70;57.10;;;;;;5015809;28;20543;-56
2021/01/01 03:53:11;;;;;;;32.80;24.95;;;16.70;57.00;;;;;;5015730;28;20067;-56
2021/01/01 03:55:37;;;;;;;29.95;23.17;;;16.70;57.10;;;;;;5015448;28;20053;-57
2021/01/01 03:58:02;;;;;;;29.58;23.33;;;16.60;57.00;;;;;;5033509;28;20017;-57
2021/01/01 04:00:28;;;;;;;30.77;24.60;;;16.70;57.20;;;;;;5015720;28;20034;-55
2021/01/01 04:02:54;;;;;;;28.65;23.38;;;16.70;57.10;;;;;;5033266;28;20033;-56
2021/01/01 04:05:19;;;;;;;29.33;23.35;;;16.60;57.10;;;;;;5033273;28;20092;-56
2021/01/01 04:07:45;;;;;;;29.80;23.05;;;16.60;57.10;;;;;;5015617;28;20022;-56
2021/01/01 04:10:11;;;;;;;30.35;23.10;;;16.60;57.20;;;;;;5015935;28;20034;-55
2021/01/01 04:12:37;;;;;;;27.58;21.50;;;16.60;57.20;;;;;;5032553;28;20074;-57
2021/01/01 04:15:04;;;;;;;27.88;22.38;;;16.60;57.20;;;;;;5017234;28;20056;-55
2021/01/01 04:17:30;;;;;;;26.02;21.60;;;16.60;57.30;;;;;;5033072;28;20100;-56
2021/01/01 04:19:55;;;;;;;28.88;22.00;;;16.50;57.30;;;;;;5033142;28;20515;-56
2021/01/01 04:22:21;;;;;;;25.55;20.70;;;16.60;57.20;;;;;;5033257;28;20041;-56
2021/01/01 04:24:46;;;;;;;27.10;20.02;;;16.60;57.30;;;;;;5032885;28;20029;-57
2021/01/01 04:27:12;;;;;;;26.63;20.98;;;16.60;57.30;;;;;;5032890;28;20033;-55
2021/01/01 04:29:37;;;;;;;26.33;21.13;;;16.60;57.30;;;;;;5015165;28;20527;-56
2021/01/01 04:32:03;;;;;;;23.88;19.60;;;16.60;57.20;;;;;;5032770;28;20022;-56
2021/01/01 04:34:29;;;;;;;25.45;20.23;;;16.60;57.20;;;;;;5032562;28;20108;-56
2021/01/01 04:36:54;;;;;;;24.05;18.85;;;16.60;57.30;;;;;;5032712;28;20021;-55
2021/01/01 04:39:20;;;;;;;25.15;19.40;;;16.60;57.30;;;;;;5033030;28;20033;-57
2021/01/01 04:41:48;;;;;;;23.38;18.40;;;16.60;57.20;;;;;;5032644;28;20022;-56
2021/01/01 04:44:16;;;;;;;25.67;18.60;;;16.60;57.10;;;;;;5014592;28;20120;-55
2021/01/01 04:46:42;;;;;;;21.75;18.20;;;16.60;57.20;;;;;;5032616;28;20032;-56
2021/01/01 04:49:08;;;;;;;23.70;18.35;;;16.60;57.30;;;;;;5032367;28;20073;-57
2021/01/01 04:51:35;;;;;;;23.92;17.83;;;16.60;57.20;;;;;;5032321;28;20032;-55
2021/01/01 04:54:02;;;;;;;24.27;18.23;;;16.60;57.10;;;;;;5014674;28;20029;-56
2021/01/01 04:56:28;;;;;;;21.92;17.27;;;16.50;57.20;;;;;;5032425;28;20025;-56
2021/01/01 04:58:54;;;;;;;21.13;17.45;;;16.50;57.20;;;;;;5032263;28;20022;-56
2021/01/01 05:01:24;;;;;;;20.65;16.65;;;16.50;57.20;;;;;;5031957;28;20064;-56
2021/01/01 05:03:49;;;;;;;21.58;17.45;;;16.50;57.20;;;;;;5032228;28;20098;-56
2021/01/01 05:06:27;;;;;;;21.73;17.35;;;16.60;57.20;;;;;;5032294;28;20495;-56
2021/01/01 05:08:52;;;;;;;21.58;17.40;;;16.50;57.20;;;;;;5014403;28;20056;-56
2021/01/01 05:11:21;;;;;;;21.50;17.85;;;16.40;57.10;;;;;;5014358;28;20112;-56
2021/01/01 05:14:01;;;;;;;20.42;16.17;;;16.50;57.20;;;;;;5032042;28;20036;-56
2021/01/01 05:16:27;;;;;;;;;;;16.40;57.10;;;;;;5034382;28;20412;-55
2021/01/01 05:18:53;;;;;;;19.92;16.13;;;16.40;57.20;;;;;;5014369;28;19905;-56
2021/01/01 05:21:26;;;;;;;20.42;16.17;;;16.40;57.20;;;;;;5014306;28;20432;-56
2021/01/01 05:23:54;;;;;;;19.92;14.55;;;16.40;57.20;;;;;;5031688;28;20037;-55
2021/01/01 05:26:24;;;;;;;20.25;15.38;;;16.40;57.10;;;;;;5014326;28;20064;-56
2021/01/01 05:28:50;;;;;;;18.60;15.27;;;16.40;57.10;;;;;;5032301;28;20032;-56
2021/01/01 05:31:17;;;;;;;19.55;14.77;;;16.40;57.20;;;;;;5014284;28;20069;-56
2021/01/01 05:33:43;;;;;;;20.67;15.77;;;16.30;57.10;;;;;;5014079;28;20029;-56
2021/01/01 05:36:09;;;;;;;16.38;13.82;;;16.30;57.30;;;;;;5031804;28;20030;-57
2021/01/01 05:38:36;;;;;;;18.27;13.50;;;16.40;57.40;;;;;;5031727;28;20033;-56
2021/01/01 05:41:01;;;;;;;17.38;13.60;;;16.30;57.40;;;;;;5014212;28;20387;-53
2021/01/01 05:43:27;;;;;;;16.95;13.60;;;16.30;57.50;;;;;;5031726;28;20022;-55
2021/01/01 05:46:09;;;;;;;17.33;14.07;;;16.30;57.50;;;;;;5014089;28;20025;-55
2021/01/01 05:48:35;;;;;;;16.55;12.85;;;16.30;57.50;;;;;;5031936;28;20021;-56
2021/01/01 05:51:07;;;;;;;15.63;12.65;;;16.40;57.60;;;;;;5014204;28;20083;-56
2021/01/01 05:53:33;;;;;;;16.02;13.02;;;16.40;57.60;;;;;;5014134;28;20088;-56
2021/01/01 05:56:08;;;;;;;15.73;12.55;;;16.30;57.50;;;;;;5014027;28;20059;-56
2021/01/01 05:58:34;;;;;;;16.92;12.57;;;16.40;57.50;;;;;;5014015;28;20054;-54
2021/01/01 06:01:02;;;;;;;14.02;11.65;;;16.30;57.40;;;;;;5031816;28;20025;-56
2021/01/01 06:03:33;;;;;;;15.10;11.85;;;16.40;57.40;;;;;;5013871;28;20120;-56
2021/01/01 06:06:04;;;;;;;14.60;11.88;;;16.40;57.30;;;;;;5031620;28;20029;-57
2021/01/01 06:08:30;;;;;;;14.25;11.88;;;16.40;57.20;;;;;;5031665;28;20033;-56
2021/01/01 06:11:04;;;;;;;14.75;11.27;;;16.40;57.30;;;;;;5031732;28;20365;-56
2021/01/01 06:13:35;;;;;;;13.45;11.27;;;16.40;57.20;;;;;;5031596;28;20029;-55
2021/01/01 06:16:05;;;;;;;14.80;11.77;;;16.40;57.40;;;;;;5033452;28;20052;-57
2021/01/01 06:18:33;;;;;;;14.68;11.55;;;16.30;57.60;;;;;;5031508;28;20132;-57
2021/01/01 06:21:03;;;;;;;13.55;10.88;;;16.20;57.60;;;;;;5031366;28;20092;-56
2021/01/01 06:23:39;;;;;;;15.95;11.90;;;16.30;57.50;;;;;;5013443;28;20037;-55
2021/01/01 06:26:07;;;;;;;13.35;11.02;;;16.20;57.50;;;;;;5013595;28;20026;-56
2021/01/01 06:28:36;;;;;;;11.70;10.40;;;16.20;57.50;;;;;;5031415;28;20086;-56
2021/01/01 06:31:04;;;;;;;15.05;11.23;;;16.10;57.30;;;;;;5013614;28;20032;-56
2021/01/01 06:33:30;;;;;;;13.55;11.00;;;16.10;57.30;;;;;;5013361;28;20133;-56
2021/01/01 06:35:56;;;;;;;12.55;10.70;;;16.00;57.30;;;;;;5013862;28;20017;-56
2021/01/01 06:38:41;;;;;;;13.73;10.60;;;16.00;57.50;;;;;;5035045;28;20037;-56
2021/01/01 06:41:13;;;;;;;12.65;10.15;;;16.00;57.60;;;;;;5017164;28;20018;-56
2021/01/01 06:43:53;;;;;;;12.07;10.10;;;15.90;57.60;;;;;;5034715;28;20122;-56
2021/01/01 06:46:32;;;;;;;13.20;10.23;;;15.90;57.70;;;;;;5016948;28;20492;-56
2021/01/01 06:48:58;;;;;;;12.45;9.77;;;15.80;57.70;;;;;;5017093;28;20030;-56
2021/01/01 06:51:27;;;;;;;11.88;9.43;;;15.80;57.70;;;;;;5016794;28;20026;-56
2021/01/01 06:53:53;;;;;;;11.50;9.77;;;15.70;57.70;;;;;;5016798;28;20026;-56
2021/01/01 06:56:20;;;;;;;12.82;9.65;;;15.70;57.80;;;;;;5017035;28;20471;-56
2021/01/01 06:58:46;;;;;;;11.93;9.23;;;15.70;57.80;;;;;;5016872;28;20391;-56
2021/01/01 07:01:16;;;;;;;10.23;8.23;;;15.70;57.80;;;;;;5034563;28;20025;-56
2021/01/01 07:03:41;;;;;;;11.32;9.48;;;15.70;57.80;;;;;;5016731;28;20172;-56
2021/01/01 07:06:07;;;;;;;9.63;8.07;;;15.60;57.70;;;;;;5016755;28;20642;-54
2021/01/01 07:08:45;;;;;;;10.82;8.77;;;15.60;57.70;;;;;;5016758;28;20395;-55
2021/01/01 07:11:13;;;;;;;11.45;8.18;;;15.60;57.80;;;;;;5016688;28;20052;-56
2021/01/01 07:13:43;;;;;;;11.57;9.10;;;15.50;57.70;;;;;;5034611;28;20095;-56
2021/01/01 07:16:09;;;;;;;11.10;8.75;;;15.60;57.80;;;;;;5018445;28;20052;-56
2021/01/01 07:18:35;;;;;;;10.07;8.27;;;15.50;57.80;;;;;;5034303;28;20025;-56
2021/01/01 07:21:05;;;;;;;9.80;8.43;;;15.50;57.90;;;;;;5034512;28;20383;-56
2021/01/01 07:23:31;;;;;;;9.05;7.55;;;15.50;58.50;;;;;;5016080;28;20041;-56
2021/01/01 07:25:58;;;;;;;9.45;7.72;;;15.40;57.80;;;;;;5016363;28;20025;-56
2021/01/01 07:28:25;;;;;;;11.18;8.43;;;15.40;57.90;;;;;;5034073;28;20025;-56
2021/01/01 07:30:51;;;;;;;9.77;7.75;;;15.40;58.00;;;;;;5016271;28;20029;-53
2021/01/01 07:33:23;;;;;;;9.27;7.50;;;15.40;58.00;;;;;;5016017;28;20017;-56
2021/01/01 07:36:00;;;;;;;9.18;7.95;;;15.40;58.00;;;;;;5033885;28;20030;-56
2021/01/01 07:38:28;;;;;;;8.95;7.45;;;15.30;58.00;;;;;;5016082;28;20087;-55
2021/01/01 07:40:54;;;;;;;10.05;8.00;;;15.30;58.00;;;;;;5033764;28;20057;-55
2021/01/01 07:43:20;;;;;;;8.18;6.80;;;15.30;58.00;;;;;;5016107;28;20030;-55
2021/01/01 07:45:46;;;;;;;8.35;6.88;;;15.30;58.00;;;;;;5015842;28;20041;-56
2021/01/01 07:48:12;;;;;;;7.90;6.80;;;15.30;58.10;;;;;;5015872;28;20017;-57
2021/01/01 07:50:39;;;;;;;9.45;6.68;;;15.30;58.10;;;;;;5015805;28;20075;-55
2021/01/01 07:53:14;;;;;;;8.70;7.25;;;15.30;58.10;;;;;;5015815;28;20026;-56
2021/01/01 07:55:41;;;;;;;9.98;7.40;;;15.20;58.10;;;;;;5015651;28;20368;-55
2021/01/01 07:58:09;;;;;;;9.02;6.82;;;15.20;58.10;;;;;;5015734;28;20021;-55
2021/01/01 08:00:37;;;;;;;8.90;7.25;;;15.20;58.10;;;;;;5015847;28;20032;-55
2021/01/01 08:03:04;;;;;;;7.25;6.38;;;15.10;58.10;;;;;;5015540;28;20055;-56
2021/01/01 08:05:30;;;;;;;9.05;6.90;;;15.20;58.20;;;;;;5033312;28;20048;-55
2021/01/01 08:08:16;;;;;;;7.10;6.25;;;15.10;58.20;;;;;;5033281;28;20476;-55
2021/01/01 08:10:44;;;;;;;6.80;6.10;;;15.10;58.20;;;;;;5033493;28;20022;-56
2021/01/01 08:13:18;;;;;;;7.10;5.97;;;15.10;58.20;;;;;;5033026;28;20033;-55
2021/01/01 08:15:44;;;;;;;7.95;6.40;;;15.10;58.20;;;;;;5035102;28;20045;-56
2021/01/01 08:18:18;;;;;;;7.03;5.72;;;15.10;58.20;;;;;;5033013;28;20129;-55
2021/01/01 08:20:49;;;;;;;7.35;6.05;;;15.00;58.20;;;;;;5032771;28;20025;-55
2021/01/01 08:23:17;;;;;;;7.45;5.90;;;15.10;58.20;;;;;;5032944;28;20034;-55
2021/01/01 08:25:44;;;;;;;7.00;5.65;;;15.10;58.30;;;;;;5033352;28;20025;-56
2021/01/01 08:28:12;;;;;;;6.88;6.03;;;15.00;58.30;;;;;;5032830;28;20514;-55
2021/01/01 08:30:39;;;;;;;7.18;5.80;;;15.00;58.30;;;;;;5015097;28;20037;-54
2021/01/01 08:33:06;;;;;;;6.07;5.00;;;15.00;58.30;;;;;;5033025;28;20026;-55
2021/01/01 08:35:32;;;;;;;11.10;5.57;;;14.90;58.40;;;;;;5032640;28;20108;-56
2021/01/01 08:37:58;;;;;;;7.47;5.72;;;14.90;58.60;;;;;;5032739;28;20029;-53
2021/01/01 08:40:24;;;;;;;9.82;5.95;;;14.90;58.50;;;;;;5032697;28;20117;-58
2021/01/01 08:42:54;;;;;;;7.00;5.30;;;14.90;58.40;;;;;;5032478;28;20040;-56
2021/01/01 08:45:30;;;;;;;6.63;5.78;;;14.90;58.50;;;;;;5032631;28;20030;-56
2021/01/01 08:48:10;;;;;;;8.93;4.93;;;14.90;58.50;;;;;;5032912;28;20467;-56
2021/01/01 08:50:45;;;;;;;5.90;4.75;;;14.90;58.60;;;;;;5032478;28;20529;-56
2021/01/01 08:53:12;;;;;;;10.10;5.25;;;14.90;58.70;;;;;;5032608;28;20029;-56
2021/01/01 08:55:38;;;;;;;8.50;5.65;;;14.90;58.70;;;;;;5032458;28;20419;-55
2021/01/01 08:58:17;;;;;;;7.28;5.45;;;14.90;58.70;;;;;;5014555;28;20021;-55
2021/01/01 09:00:44;;;;;;;6.00;5.00;;;14.90;58.80;;;;;;5032030;28;20053;-56
2021/01/01 09:03:15;;;;;;;6.80;4.68;;;14.90;59.10;;;;;;5032189;28;20021;-56
2021/01/01 09:05:41;;;;;;;8.50;4.97;;;14.90;58.80;;;;;;5014546;28;20037;-56
2021/01/01 09:08:12;;;;;;;7.30;4.55;;;14.90;59.70;;;;;;5014311;28;20056;-56
2021/01/01 09:10:47;;;;;;;6.47;4.80;;;14.90;59.20;;;;;;5032132;28;20029;-57
2021/01/01 09:13:19;;;;;;;6.30;4.20;;;14.90;59.10;;;;;;5031852;28;20033;-55
2021/01/01 09:16:04;;;;;;;8.27;4.60;;;14.90;59.80;;;;;;5033882;28;20040;-56
2021/01/01 09:18:31;;;;;;;7.72;4.45;;;14.90;59.80;;;;;;5032217;28;20067;-54
2021/01/01 09:21:09;;;;;;;6.47;4.53;;;14.90;59.80;;;;;;5032035;28;20036;-54
2021/01/01 09:23:34;;;;;;;9.27;4.53;;;14.90;59.70;;;;;;5031822;28;20041;-52
2021/01/01 09:26:00;;;;;;;5.22;4.13;;;14.80;59.80;;;;;;5031961;28;20028;-53
2021/01/01 09:28:26;;;;;;;6.47;4.15;;;14.80;59.90;;;;;;5031890;28;20041;-55
2021/01/01 09:30:51;;;;;;;9.38;4.63;;;14.80;59.90;;;;;;5031863;28;20080;-55
2021/01/01 09:33:17;;;;;;;6.13;4.43;;;14.80;59.70;;;;;;5031989;28;20018;-55
2021/01/01 09:35:42;;;;;;;7.32;4.63;;;14.80;59.60;;;;;;5014193;28;20549;-54
2021/01/01 09:38:08;;;;;;;4.93;3.97;;;14.80;59.50;;;;;;5031837;28;20022;-54
2021/01/01 09:40:34;;;;;;;4.82;3.75;;;14.80;59.60;;;;;;5031726;28;20029;-54
2021/01/01 09:43:07;;;;;;;5.07;3.95;;;14.80;59.70;;;;;;5013907;28;20037;-52
2021/01/01 09:45:36;;;;;;;9.25;3.95;;;14.80;59.80;;;;;;5031612;28;20025;-52
2021/01/01 09:48:03;;;;;;;7.27;3.60;;;14.80;59.80;;;;;;5031504;28;20030;-54
2021/01/01 09:50:29;;;;;;;6.63;3.53;;;14.80;59.70;;;;;;5013916;28;20119;-53
2021/01/01 09:52:55;;;;;;;4.88;3.35;;;14.80;59.60;;;;;;5013997;28;20022;-53
2021/01/01 09:55:21;;;;;;;4.60;3.60;;;14.70;59.60;;;;;;5014068;28;20029;-55
2021/01/01 09:57:47;;;;;;;3.97;3.38;;;14.70;59.60;;;;;;5032006;28;20082;-54
2021/01/01 10:00:17;;;;;;;6.50;3.67;;;14.70;59.70;;;;;;5031595;28;20399;-54
2021/01/01 10:02:43;;;;;;;;;;;14.70;59.70;;;;;;5031917;28;20018;-51
2021/01/01 10:05:10;;;;;;;4.32;3.40;;;14.70;59.60;;;;;;5014013;28;20549;-55
2021/01/01 10:07:36;;;;;;;7.40;3.78;;;14.70;59.60;;;;;;5032047;28;20021;-55
2021/01/01 10:10:07;;;;;;;3.97;3.15;;;14.70;59.70;;;;;;5031370;28;20017;-54
2021/01/01 10:12:32;;;;;;;3.63;3.03;;;14.70;59.50;;;;;;5034337;28;20036;-55
2021/01/01 10:14:59;;;;;;;3.95;3.03;;;14.70;59.60;;;;;;5017702;28;20033;-53
2021/01/01 10:17:32;;;;;;;5.50;3.25;;;14.70;59.60;;;;;;5019579;28;20056;-54
2021/01/01 10:19:58;;;;;;;4.03;3.25;;;14.70;59.60;;;;;;5035489;28;20048;-51
2021/01/01 10:22:24;;;;;;;4.47;3.03;;;14.70;59.60;;;;;;5035292;28;20467;-52
2021/01/01 10:24:49;;;;;;;4.72;2.85;;;14.70;59.30;;;;;;5035512;28;20037;-54
2021/01/01 10:27:15;;;;;;;4.53;2.80;;;14.60;59.40;;;;;;5035184;28;20028;-53
2021/01/01 10:29:42;;;;;;;3.92;3.17;;;14.60;59.60;;;;;;5034921;28;20036;-54
2021/01/01 10:32:08;;;;;;;5.25;3.45;;;14.80;59.70;;;;;;5017244;28;20071;-55
2021/01/01 10:34:35;;;;;;;3.60;2.70;;;14.60;59.50;;;;;;5017291;28;20026;-54
2021/01/01 10:37:00;;;;;;;5.22;3.05;;;14.60;59.80;;;;;;5035091;28;20026;-52
2021/01/01 10:39:26;;;;;;;3.13;2.53;;;14.70;59.80;;;;;;5017108;28;20044;-51
2021/01/01 10:41:52;;;;;;;4.93;2.95;;;14.70;59.60;;;;;;5034984;28;20017;-52
2021/01/01 10:44:18;;;;;;;3.60;2.97;;;14.70;59.50;;;;;;5034895;28;20040;-52
2021/01/01 10:46:50;;;;;;;5.35;2.38;;;14.70;59.40;;;;;;5017205;28;20025;-52
2021/01/01 10:49:16;;;;;;;3.55;2.65;;;14.70;59.30;;;;;;5034776;28;20030;-52
2021/01/01 10:51:42;;;;;;;2.83;2.47;;;14.80;59.30;;;;;;5017196;28;20030;-52
2021/01/01 10:54:07;;;;;;;4.30;2.50;;;14.70;59.20;;;;;;5016921;28;20193;-54
2021/01/01 10:56:33;;;;;;;3.00;2.53;;;14.70;59.10;;;;;;5034989;28;20057;-50
2021/01/01 10:58:58;;;;;;;3.63;2.50;;;14.70;59.00;;;;;;5034668;28;20619;-54
2021/01/01 11:01:24;;;;;;;3.53;2.30;;;14.80;59.20;;;;;;5034579;28;20104;-54
2021/01/01 11:03:51;;;;;;;2.75;2.35;;;14.70;59.10;;;;;;5034411;28;20056;-56
2021/01/01 11:06:18;;;;;;;3.17;2.45;;;14.70;59.10;;;;;;5034502;28;20411;-54
2021/01/01 11:08:45;;;;;;;2.47;2.10;;;14.80;59.10;;;;;;5016762;28;20382;-55
2021/01/01 11:11:13;;;;;;;3.03;2.30;;;14.70;59.10;;;;;;5034383;28;20017;-54
2021/01/01 11:13:46;;;;;;;2.35;2.15;;;14.70;59.00;;;;;;5034348;28;20076;-52
2021/01/01 12:23:01;;;;;;;1.98;1.85;;;14.60;58.90;;;;;;5033336;28;20079;-55
2021/01/01 12:25:27;;;;;;;2.55;1.90;;;14.60;58.90;;;;;;5033028;28;20494;-54
2021/01/01 12:27:57;;;;;;;2.75;1.75;;;14.60;59.00;;;;;;5032963;28;20064;-52
2021/01/01 12:30:25;;;;;;;3.42;1.95;;;14.50;59.10;;;;;;5032831;28;20091;-53
2021/01/01 12:32:52;;;;;;;2.95;1.83;;;14.60;59.20;;;;;;5032865;28;20021;-55
2021/01/01 12:35:18;;;;;;;3.13;1.85;;;14.50;59.20;;;;;;5031958;28;20067;-53
2021/01/01 12:37:43;;;;;;;2.00;1.77;;;14.50;59.30;;;;;;5033047;28;20017;-55
2021/01/01 12:40:10;;;;;;;2.88;2.05;;;14.50;59.30;;;;;;5014764;28;20076;-53
2021/01/01 12:42:36;;;;;;;2.63;2.15;;;14.50;59.30;;;;;;5014873;28;20412;-54
2021/01/01 12:45:02;;;;;;;2.85;1.67;;;14.50;59.40;;;;;;5032552;28;20037;-51
2021/01/01 12:47:30;;;;;;;2.05;1.85;;;14.50;59.40;;;;;;5032626;28;20048;-54
2021/01/01 12:49:56;;;;;;;2.78;2.08;;;14.40;59.30;;;;;;5032343;28;20025;-53
2021/01/01 12:52:22;;;;;;;1.90;1.60;;;14.50;59.40;;;;;;5014650;28;20041;-54
2021/01/01 12:54:47;;;;;;;2.42;1.65;;;14.50;59.40;;;;;;5032587;28;20244;-52
2021/01/01 12:57:13;;;;;;;2.78;1.90;;;14.50;59.40;;;;;;5032426;28;20104;-54
2021/01/01 12:59:39;;;;;;;2.88;1.80;;;14.50;59.40;;;;;;5032263;28;20021;-54
2021/01/01 13:02:04;;;;;;;3.97;1.90;;;14.40;59.20;;;;;;5014621;28;20037;-52
2021/01/01 13:04:30;;;;;;;1.90;1.52;;;14.40;59.20;;;;;;5014417;28;20120;-52
2021/01/01 13:06:55;;;;;;;4.30;2.28;;;14.40;59.10;;;;;;5032349;28;20025;-53
2021/01/01 13:09:22;;;;;;;2.70;1.80;;;14.40;59.10;;;;;;4998120;28;20094;-51
2021/01/01 13:11:48;;;;;;;3.40;1.90;;;14.40;59.20;;;;;;5032500;28;20432;-54
2021/01/01 13:14:14;;;;;;;2.95;1.88;;;14.40;59.10;;;;;;5032092;28;20064;-53
2021/01/01 13:16:41;;;;;;;2.30;1.60;;;14.40;59.20;;;;;;5015979;28;20045;-52
2021/01/01 13:19:07;;;;;;;3.17;1.95;;;14.40;59.20;;;;;;5032112;28;20087;-54
2021/01/01 13:21:34;;;;;;;4.72;2.20;;;14.30;59.00;;;;;;5032026;28;20025;-51
2021/01/01 13:24:08;;;;;;;3.33;2.20;;;14.40;59.10;;;;;;5013763;28;20034;-53
2021/01/01 13:26:35;;;;;;;3.30;1.77;;;14.40;59.10;;;;;;5031682;28;20405;-51
2021/01/01 13:29:02;;;;;;;3.30;2.05;;;14.30;59.00;;;;;;5031591;28;20480;-51
2021/01/01 13:31:47;;;;;;;3.00;1.90;;;14.30;59.00;;;;;;5014037;28;20403;-54
2021/01/01 13:34:13;;;;;;;3.58;1.70;;;14.30;59.00;;;;;;5031871;28;20025;-53
2021/01/01 13:36:39;;;;;;;2.15;1.70;;;14.30;59.00;;;;;;5031814;28;20033;-50
2021/01/01 13:39:05;;;;;;;3.05;1.80;;;14.30;59.00;;;;;;5031808;28;20399;-53
2021/01/01 13:41:36;;;;;;;2.35;1.70;;;14.30;59.00;;;;;;5014104;28;20028;-52
2021/01/01 13:44:01;;;;;;;;;;;14.30;59.00;;;;;;4998550;28;20040;-54